sensor_id;sensor_type;location;lat;lon;timestamp;pressure;altitude;pressure_sealevel;temperature;humidity
30618;BME280;17384;51.214;9.202;2023-05-20T00:00:32;99357.91;;;8.28;77.70
30618;BME280;17384;51.214;9.202;2023-05-20T00:02:57;99346.72;;;8.31;77.20
30618;BME280;17384;51.214;9.202;2023-05-20T00:05:25;99351.88;;;8.41;76.84
30618;BME280;17384;51.214;9.202;2023-05-20T00:07:50;99352.63;;;8.35;76.98
30618;BME280;17384;51.214;9.202;2023-05-20T00:10:15;99352.97;;;8.32;77.25
30618;BME280;17384;51.214;9.202;2023-05-20T00:12:41;99345.78;;;8.24;77.69
30618;BME280;17384;51.214;9.202;2023-05-20T00:15:07;99353.28;;;7.93;79.01
30618;BME280;17384;51.214;9.202;2023-05-20T00:17:33;99345.91;;;8.01;79.11
30618;BME280;17384;51.214;9.202;2023-05-20T00:19:58;99348.53;;;8.39;79.65
30618;BME280;17384;51.214;9.202;2023-05-20T00:22:24;99350.31;;;8.46;79.75
30618;BME280;17384;51.214;9.202;2023-05-20T00:24:50;99351.66;;;8.72;78.91
30618;BME280;17384;51.214;9.202;2023-05-20T00:27:16;99330.78;;;8.87;78.48
30618;BME280;17384;51.214;9.202;2023-05-20T00:29:41;99338.00;;;9.44;76.77
30618;BME280;17384;51.214;9.202;2023-05-20T00:32:06;99349.91;;;9.71;75.78
30618;BME280;17384;51.214;9.202;2023-05-20T00:34:32;99338.06;;;10.06;74.67
30618;BME280;17384;51.214;9.202;2023-05-20T00:36:57;99341.72;;;10.20;73.85
30618;BME280;17384;51.214;9.202;2023-05-20T00:39:23;99334.47;;;10.27;73.77
30618;BME280;17384;51.214;9.202;2023-05-20T00:41:48;99330.16;;;10.39;73.35
30618;BME280;17384;51.214;9.202;2023-05-20T00:44:14;99332.25;;;10.44;73.00
30618;BME280;17384;51.214;9.202;2023-05-20T00:46:39;99332.28;;;10.50;72.49
30618;BME280;17384;51.214;9.202;2023-05-20T00:49:05;99326.50;;;10.67;71.83
30618;BME280;17384;51.214;9.202;2023-05-20T00:51:30;99310.25;;;10.80;71.34
30618;BME280;17384;51.214;9.202;2023-05-20T00:53:56;99321.78;;;10.89;71.19
30618;BME280;17384;51.214;9.202;2023-05-20T00:56:22;99320.13;;;11.01;70.45
30618;BME280;17384;51.214;9.202;2023-05-20T00:58:48;99310.97;;;11.08;70.28
30618;BME280;17384;51.214;9.202;2023-05-20T01:01:14;99309.31;;;11.27;69.35
30618;BME280;17384;51.214;9.202;2023-05-20T01:03:40;99309.31;;;11.34;69.40
30618;BME280;17384;51.214;9.202;2023-05-20T01:06:05;99303.88;;;11.34;69.04
30618;BME280;17384;51.214;9.202;2023-05-20T01:08:31;99297.41;;;11.35;68.96
30618;BME280;17384;51.214;9.202;2023-05-20T01:11:10;99292.59;;;11.37;69.23
30618;BME280;17384;51.214;9.202;2023-05-20T01:13:42;99291.97;;;11.41;69.01
30618;BME280;17384;51.214;9.202;2023-05-20T01:16:10;99300.34;;;11.40;68.86
30618;BME280;17384;51.214;9.202;2023-05-20T01:18:38;99284.25;;;11.45;68.71
30618;BME280;17384;51.214;9.202;2023-05-20T01:21:04;99310.56;;;11.38;69.28
30618;BME280;17384;51.214;9.202;2023-05-20T01:23:41;99301.38;;;11.32;69.43
30618;BME280;17384;51.214;9.202;2023-05-20T01:26:08;99302.84;;;11.35;69.60
30618;BME280;17384;51.214;9.202;2023-05-20T01:28:35;99300.94;;;11.35;69.81
30618;BME280;17384;51.214;9.202;2023-05-20T01:31:04;99290.09;;;11.35;69.43
30618;BME280;17384;51.214;9.202;2023-05-20T01:33:33;99306.59;;;11.34;69.90
30618;BME280;17384;51.214;9.202;2023-05-20T01:36:00;99300.94;;;11.35;69.58
30618;BME280;17384;51.214;9.202;2023-05-20T01:38:26;99288.41;;;11.34;69.59
30618;BME280;17384;51.214;9.202;2023-05-20T01:40:53;99289.69;;;11.38;69.79
30618;BME280;17384;51.214;9.202;2023-05-20T01:43:20;99284.66;;;11.48;69.53
30618;BME280;17384;51.214;9.202;2023-05-20T01:45:45;99288.00;;;11.44;69.39
30618;BME280;17384;51.214;9.202;2023-05-20T01:48:12;99277.34;;;11.42;69.29
30618;BME280;17384;51.214;9.202;2023-05-20T01:50:38;99277.97;;;11.44;69.00
30618;BME280;17384;51.214;9.202;2023-05-20T01:53:03;99274.59;;;11.49;69.16
30618;BME280;17384;51.214;9.202;2023-05-20T01:55:30;99278.81;;;11.45;69.49
30618;BME280;17384;51.214;9.202;2023-05-20T01:57:55;99284.00;;;11.53;68.85
30618;BME280;17384;51.214;9.202;2023-05-20T02:00:20;99280.88;;;11.56;68.93
30618;BME280;17384;51.214;9.202;2023-05-20T02:02:46;99277.53;;;11.54;69.00
30618;BME280;17384;51.214;9.202;2023-05-20T02:05:11;99269.59;;;11.52;68.93
30618;BME280;17384;51.214;9.202;2023-05-20T02:07:37;99279.22;;;11.55;69.31
30618;BME280;17384;51.214;9.202;2023-05-20T02:10:03;99275.88;;;11.53;69.37
30618;BME280;17384;51.214;9.202;2023-05-20T02:12:28;99279.00;;;11.50;69.37
30618;BME280;17384;51.214;9.202;2023-05-20T02:14:54;99287.56;;;11.53;69.18
30618;BME280;17384;51.214;9.202;2023-05-20T02:17:20;99284.88;;;11.47;69.98
30618;BME280;17384;51.214;9.202;2023-05-20T02:19:45;99280.91;;;11.43;70.94
30618;BME280;17384;51.214;9.202;2023-05-20T02:22:12;99289.66;;;11.32;71.36
30618;BME280;17384;51.214;9.202;2023-05-20T02:24:37;99291.56;;;11.38;70.91
30618;BME280;17384;51.214;9.202;2023-05-20T02:27:03;99277.34;;;11.36;70.76
30618;BME280;17384;51.214;9.202;2023-05-20T02:29:30;99277.56;;;11.41;70.19
30618;BME280;17384;51.214;9.202;2023-05-20T02:31:56;99278.19;;;11.43;70.39
30618;BME280;17384;51.214;9.202;2023-05-20T02:34:22;99277.53;;;11.54;71.10
30618;BME280;17384;51.214;9.202;2023-05-20T02:36:47;99277.13;;;11.50;70.94
30618;BME280;17384;51.214;9.202;2023-05-20T02:39:12;99277.16;;;11.44;70.55
30618;BME280;17384;51.214;9.202;2023-05-20T02:41:38;99279.22;;;11.35;71.20
30618;BME280;17384;51.214;9.202;2023-05-20T02:44:03;99288.63;;;11.46;70.52
30618;BME280;17384;51.214;9.202;2023-05-20T02:46:29;99283.38;;;11.51;70.67
30618;BME280;17384;51.214;9.202;2023-05-20T02:48:55;99285.47;;;11.49;70.87
30618;BME280;17384;51.214;9.202;2023-05-20T02:51:21;99275.47;;;11.43;71.41
30618;BME280;17384;51.214;9.202;2023-05-20T02:53:46;99270.03;;;11.36;71.55
30618;BME280;17384;51.214;9.202;2023-05-20T02:56:12;99270.03;;;11.43;71.21
30618;BME280;17384;51.214;9.202;2023-05-20T02:58:38;99270.00;;;11.49;70.53
30618;BME280;17384;51.214;9.202;2023-05-20T03:01:03;99271.72;;;11.44;70.88
30618;BME280;17384;51.214;9.202;2023-05-20T03:03:29;99274.00;;;11.40;71.27
30618;BME280;17384;51.214;9.202;2023-05-20T03:05:55;99269.59;;;11.33;72.25
30618;BME280;17384;51.214;9.202;2023-05-20T03:08:21;99265.41;;;11.24;72.46
30618;BME280;17384;51.214;9.202;2023-05-20T03:10:47;99272.13;;;11.21;72.11
30618;BME280;17384;51.214;9.202;2023-05-20T03:13:12;99262.50;;;11.18;72.49
30618;BME280;17384;51.214;9.202;2023-05-20T03:15:40;99268.16;;;11.17;72.65
30618;BME280;17384;51.214;9.202;2023-05-20T03:18:05;99267.09;;;11.25;72.03
30618;BME280;17384;51.214;9.202;2023-05-20T03:20:33;99285.69;;;11.28;71.82
30618;BME280;17384;51.214;9.202;2023-05-20T03:23:01;99266.47;;;11.29;71.88
30618;BME280;17384;51.214;9.202;2023-05-20T03:25:27;99272.09;;;11.28;71.70
30618;BME280;17384;51.214;9.202;2023-05-20T03:27:52;99275.66;;;11.28;71.65
30618;BME280;17384;51.214;9.202;2023-05-20T03:30:18;99267.72;;;11.27;71.55
30618;BME280;17384;51.214;9.202;2023-05-20T03:32:43;99268.97;;;11.31;71.59
30618;BME280;17384;51.214;9.202;2023-05-20T03:35:09;99268.78;;;11.32;71.63
30618;BME280;17384;51.214;9.202;2023-05-20T03:37:34;99269.19;;;11.29;71.73
30618;BME280;17384;51.214;9.202;2023-05-20T03:40:00;99277.13;;;11.24;71.92
30618;BME280;17384;51.214;9.202;2023-05-20T03:42:26;99274.00;;;11.27;71.98
30618;BME280;17384;51.214;9.202;2023-05-20T03:44:51;99268.34;;;11.15;72.79
30618;BME280;17384;51.214;9.202;2023-05-20T03:47:17;99273.38;;;11.12;73.53
30618;BME280;17384;51.214;9.202;2023-05-20T03:49:42;99271.47;;;11.06;73.80
30618;BME280;17384;51.214;9.202;2023-05-20T03:52:08;99259.78;;;11.05;73.42
30618;BME280;17384;51.214;9.202;2023-05-20T03:54:33;99259.56;;;11.07;73.34
30618;BME280;17384;51.214;9.202;2023-05-20T03:57:00;99265.81;;;11.01;73.81
30618;BME280;17384;51.214;9.202;2023-05-20T03:59:27;99258.28;;;10.96;73.63
30618;BME280;17384;51.214;9.202;2023-05-20T04:01:52;99272.50;;;10.98;73.49
30618;BME280;17384;51.214;9.202;2023-05-20T04:04:18;99271.22;;;10.94;73.81
30618;BME280;17384;51.214;9.202;2023-05-20T04:06:43;99253.50;;;10.98;73.59
30618;BME280;17384;51.214;9.202;2023-05-20T04:09:10;99267.06;;;10.98;73.72
30618;BME280;17384;51.214;9.202;2023-05-20T04:11:35;99262.69;;;10.97;73.88
30618;BME280;17384;51.214;9.202;2023-05-20T04:14:01;99271.22;;;10.94;74.10
30618;BME280;17384;51.214;9.202;2023-05-20T04:16:26;99268.31;;;10.89;74.24
30618;BME280;17384;51.214;9.202;2023-05-20T04:18:53;99264.75;;;10.95;73.85
30618;BME280;17384;51.214;9.202;2023-05-20T04:21:19;99273.56;;;10.91;74.31
30618;BME280;17384;51.214;9.202;2023-05-20T04:23:44;99267.50;;;11.02;73.89
30618;BME280;17384;51.214;9.202;2023-05-20T04:26:10;99263.31;;;10.99;73.80
30618;BME280;17384;51.214;9.202;2023-05-20T04:28:35;99265.63;;;10.89;74.28
30618;BME280;17384;51.214;9.202;2023-05-20T04:31:02;99284.63;;;11.02;74.01
30618;BME280;17384;51.214;9.202;2023-05-20T04:33:30;99271.69;;;11.11;73.28
30618;BME280;17384;51.214;9.202;2023-05-20T04:35:57;99275.22;;;11.05;74.19
30618;BME280;17384;51.214;9.202;2023-05-20T04:38:25;99273.56;;;11.10;73.49
30618;BME280;17384;51.214;9.202;2023-05-20T04:40:57;99273.38;;;11.18;73.29
30618;BME280;17384;51.214;9.202;2023-05-20T04:43:23;99278.38;;;11.22;73.39
30618;BME280;17384;51.214;9.202;2023-05-20T04:45:50;99277.56;;;11.21;73.78
30618;BME280;17384;51.214;9.202;2023-05-20T04:48:17;99267.50;;;11.22;73.25
30618;BME280;17384;51.214;9.202;2023-05-20T04:50:43;99267.75;;;11.20;73.54
30618;BME280;17384;51.214;9.202;2023-05-20T04:53:09;99275.88;;;11.20;73.56
30618;BME280;17384;51.214;9.202;2023-05-20T04:55:35;99274.63;;;11.29;72.88
30618;BME280;17384;51.214;9.202;2023-05-20T04:58:01;99266.69;;;11.28;73.18
30618;BME280;17384;51.214;9.202;2023-05-20T05:00:28;99267.09;;;11.31;73.04
30618;BME280;17384;51.214;9.202;2023-05-20T05:02:53;99272.09;;;11.28;73.13
30618;BME280;17384;51.214;9.202;2023-05-20T05:05:19;99260.84;;;11.37;73.01
30618;BME280;17384;51.214;9.202;2023-05-20T05:07:44;99268.97;;;11.24;73.48
30618;BME280;17384;51.214;9.202;2023-05-20T05:10:11;99270.84;;;11.30;73.35
30618;BME280;17384;51.214;9.202;2023-05-20T05:12:36;99275.44;;;11.30;73.50
30618;BME280;17384;51.214;9.202;2023-05-20T05:15:02;99282.78;;;11.36;73.22
30618;BME280;17384;51.214;9.202;2023-05-20T05:17:27;99274.00;;;11.34;73.41
30618;BME280;17384;51.214;9.202;2023-05-20T05:19:53;99274.84;;;11.34;73.33
30618;BME280;17384;51.214;9.202;2023-05-20T05:22:18;99265.44;;;11.37;73.20
30618;BME280;17384;51.214;9.202;2023-05-20T05:24:44;99268.16;;;11.43;73.13
30618;BME280;17384;51.214;9.202;2023-05-20T05:27:09;99271.28;;;11.34;73.50
30618;BME280;17384;51.214;9.202;2023-05-20T05:29:35;99280.06;;;11.36;73.39
30618;BME280;17384;51.214;9.202;2023-05-20T05:32:00;99265.44;;;11.37;73.46
30618;BME280;17384;51.214;9.202;2023-05-20T05:34:26;99261.88;;;11.36;73.52
30618;BME280;17384;51.214;9.202;2023-05-20T05:36:51;99259.16;;;11.36;73.25
30618;BME280;17384;51.214;9.202;2023-05-20T05:39:17;99255.41;;;11.37;73.43
30618;BME280;17384;51.214;9.202;2023-05-20T05:41:42;99254.34;;;11.32;73.66
30618;BME280;17384;51.214;9.202;2023-05-20T05:44:07;99262.28;;;11.33;73.66
30618;BME280;17384;51.214;9.202;2023-05-20T05:46:33;99262.72;;;11.37;73.74
30618;BME280;17384;51.214;9.202;2023-05-20T05:48:58;99264.59;;;11.36;73.81
30618;BME280;17384;51.214;9.202;2023-05-20T05:51:25;99257.91;;;11.39;73.89
30618;BME280;17384;51.214;9.202;2023-05-20T05:53:52;99264.41;;;11.44;73.53
30618;BME280;17384;51.214;9.202;2023-05-20T05:56:17;99248.31;;;11.43;73.66
30618;BME280;17384;51.214;9.202;2023-05-20T05:58:43;99260.44;;;11.47;73.72
30618;BME280;17384;51.214;9.202;2023-05-20T06:01:08;99254.38;;;11.45;73.79
30618;BME280;17384;51.214;9.202;2023-05-20T06:03:34;99259.56;;;11.53;73.94
30618;BME280;17384;51.214;9.202;2023-05-20T06:05:59;99262.06;;;11.61;73.23
30618;BME280;17384;51.214;9.202;2023-05-20T06:08:25;99257.47;;;11.68;73.67
30618;BME280;17384;51.214;9.202;2023-05-20T06:10:50;99254.97;;;11.67;73.02
30618;BME280;17384;51.214;9.202;2023-05-20T06:13:16;99250.38;;;11.67;73.35
30618;BME280;17384;51.214;9.202;2023-05-20T06:15:42;99259.34;;;11.74;73.20
30618;BME280;17384;51.214;9.202;2023-05-20T06:18:10;99257.47;;;11.81;73.31
30618;BME280;17384;51.214;9.202;2023-05-20T06:20:36;99250.75;;;11.84;73.05
30618;BME280;17384;51.214;9.202;2023-05-20T06:23:01;99248.25;;;11.82;73.12
30618;BME280;17384;51.214;9.202;2023-05-20T06:25:27;99255.38;;;11.83;73.32
30618;BME280;17384;51.214;9.202;2023-05-20T06:27:52;99257.66;;;11.80;73.17
30618;BME280;17384;51.214;9.202;2023-05-20T06:30:18;99257.47;;;11.81;73.19
30618;BME280;17384;51.214;9.202;2023-05-20T06:32:44;99257.88;;;11.78;73.40
30618;BME280;17384;51.214;9.202;2023-05-20T06:35:10;99248.47;;;11.74;73.15
30618;BME280;17384;51.214;9.202;2023-05-20T06:37:36;99248.03;;;11.84;72.81
30618;BME280;17384;51.214;9.202;2023-05-20T06:40:02;99249.91;;;11.90;73.11
30618;BME280;17384;51.214;9.202;2023-05-20T06:42:27;99252.84;;;12.02;72.69
30618;BME280;17384;51.214;9.202;2023-05-20T06:44:53;99248.25;;;11.96;72.80
30618;BME280;17384;51.214;9.202;2023-05-20T06:47:19;99252.41;;;11.98;73.19
30618;BME280;17384;51.214;9.202;2023-05-20T06:49:44;99254.72;;;11.95;72.91
30618;BME280;17384;51.214;9.202;2023-05-20T06:52:10;99253.22;;;12.05;72.97
30618;BME280;17384;51.214;9.202;2023-05-20T06:54:39;99255.09;;;12.05;72.77
30618;BME280;17384;51.214;9.202;2023-05-20T06:57:09;99240.84;;;12.16;72.09
30618;BME280;17384;51.214;9.202;2023-05-20T06:59:35;99241.88;;;12.22;72.88
30618;BME280;17384;51.214;9.202;2023-05-20T07:02:02;99245.00;;;12.25;72.13
30618;BME280;17384;51.214;9.202;2023-05-20T07:04:28;99237.59;;;12.39;71.67
30618;BME280;17384;51.214;9.202;2023-05-20T07:06:53;99232.59;;;12.36;71.89
30618;BME280;17384;51.214;9.202;2023-05-20T07:09:19;99220.78;;;12.55;71.00
30618;BME280;17384;51.214;9.202;2023-05-20T07:11:44;99236.22;;;12.61;70.98
30618;BME280;17384;51.214;9.202;2023-05-20T07:14:10;99244.19;;;12.63;70.31
30618;BME280;17384;51.214;9.202;2023-05-20T07:16:35;99249.56;;;12.76;70.59
30618;BME280;17384;51.214;9.202;2023-05-20T07:19:02;99241.13;;;12.84;70.13
30618;BME280;17384;51.214;9.202;2023-05-20T07:21:27;99247.97;;;12.93;69.71
30618;BME280;17384;51.214;9.202;2023-05-20T07:23:53;99245.88;;;12.95;69.58
30618;BME280;17384;51.214;9.202;2023-05-20T07:26:18;99240.13;;;13.10;69.71
30618;BME280;17384;51.214;9.202;2023-05-20T07:28:44;99237.25;;;13.30;68.87
30618;BME280;17384;51.214;9.202;2023-05-20T07:31:11;99236.66;;;13.28;68.68
30618;BME280;17384;51.214;9.202;2023-05-20T07:33:37;99234.63;;;13.66;67.84
30618;BME280;17384;51.214;9.202;2023-05-20T07:36:03;99234.53;;;13.73;67.04
30618;BME280;17384;51.214;9.202;2023-05-20T07:38:28;99235.25;;;13.86;67.68
30618;BME280;17384;51.214;9.202;2023-05-20T07:40:54;99229.88;;;13.80;66.19
30618;BME280;17384;51.214;9.202;2023-05-20T07:43:19;99228.13;;;13.85;66.81
30618;BME280;17384;51.214;9.202;2023-05-20T07:45:45;99221.91;;;13.97;65.94
30618;BME280;17384;51.214;9.202;2023-05-20T07:48:10;99231.63;;;14.11;66.32
30618;BME280;17384;51.214;9.202;2023-05-20T07:50:37;99227.03;;;14.23;65.78
30618;BME280;17384;51.214;9.202;2023-05-20T07:53:03;99223.50;;;14.41;65.19
30618;BME280;17384;51.214;9.202;2023-05-20T07:55:29;99217.19;;;14.59;65.15
30618;BME280;17384;51.214;9.202;2023-05-20T07:57:55;99234.00;;;14.55;63.82
30618;BME280;17384;51.214;9.202;2023-05-20T08:00:21;99211.56;;;14.53;64.69
30618;BME280;17384;51.214;9.202;2023-05-20T08:02:46;99223.69;;;14.57;64.72
30618;BME280;17384;51.214;9.202;2023-05-20T08:05:12;99219.03;;;14.76;64.10
30618;BME280;17384;51.214;9.202;2023-05-20T08:07:37;99216.31;;;14.76;65.11
30618;BME280;17384;51.214;9.202;2023-05-20T08:10:03;99224.22;;;14.66;64.35
30618;BME280;17384;51.214;9.202;2023-05-20T08:12:28;99211.94;;;14.87;63.72
30618;BME280;17384;51.214;9.202;2023-05-20T08:14:54;99221.47;;;14.96;63.68
30618;BME280;17384;51.214;9.202;2023-05-20T08:17:20;99222.34;;;14.78;64.04
30618;BME280;17384;51.214;9.202;2023-05-20T08:19:45;99232.31;;;14.73;64.23
30618;BME280;17384;51.214;9.202;2023-05-20T08:22:11;99227.34;;;14.51;64.63
30618;BME280;17384;51.214;9.202;2023-05-20T08:24:37;99225.22;;;14.83;63.78
30618;BME280;17384;51.214;9.202;2023-05-20T08:27:02;99218.47;;;14.86;63.82
30618;BME280;17384;51.214;9.202;2023-05-20T08:29:29;99228.31;;;14.75;63.94
30618;BME280;17384;51.214;9.202;2023-05-20T08:31:55;99216.03;;;14.78;64.58
30618;BME280;17384;51.214;9.202;2023-05-20T08:34:20;99209.59;;;14.61;64.75
30618;BME280;17384;51.214;9.202;2023-05-20T08:36:46;99202.50;;;14.41;64.65
30618;BME280;17384;51.214;9.202;2023-05-20T08:39:11;99205.38;;;14.28;65.18
30618;BME280;17384;51.214;9.202;2023-05-20T08:41:38;99210.25;;;14.44;66.11
30618;BME280;17384;51.214;9.202;2023-05-20T08:44:04;99211.34;;;14.55;64.41
30618;BME280;17384;51.214;9.202;2023-05-20T08:46:31;99207.66;;;14.49;65.81
30618;BME280;17384;51.214;9.202;2023-05-20T08:48:58;99213.84;;;14.56;64.80
30618;BME280;17384;51.214;9.202;2023-05-20T08:51:25;99213.13;;;14.49;65.35
30618;BME280;17384;51.214;9.202;2023-05-20T08:53:51;99208.81;;;14.42;65.28
30618;BME280;17384;51.214;9.202;2023-05-20T08:56:17;99213.00;;;14.56;65.14
30618;BME280;17384;51.214;9.202;2023-05-20T08:58:43;99219.38;;;14.80;64.55
30618;BME280;17384;51.214;9.202;2023-05-20T09:01:11;99215.13;;;14.84;64.20
30618;BME280;17384;51.214;9.202;2023-05-20T09:03:36;99217.59;;;15.15;63.51
30618;BME280;17384;51.214;9.202;2023-05-20T09:06:05;99208.44;;;15.21;64.02
30618;BME280;17384;51.214;9.202;2023-05-20T09:08:32;99198.34;;;15.34;63.14
30618;BME280;17384;51.214;9.202;2023-05-20T09:10:57;99213.00;;;15.51;61.32
30618;BME280;17384;51.214;9.202;2023-05-20T09:13:23;99206.78;;;15.32;63.12
30618;BME280;17384;51.214;9.202;2023-05-20T09:15:49;99214.50;;;15.23;62.63
30618;BME280;17384;51.214;9.202;2023-05-20T09:18:14;99215.47;;;15.41;62.59
30618;BME280;17384;51.214;9.202;2023-05-20T09:20:40;99209.19;;;15.29;62.85
30618;BME280;17384;51.214;9.202;2023-05-20T09:23:07;99204.97;;;15.14;62.92
30618;BME280;17384;51.214;9.202;2023-05-20T09:25:34;99209.84;;;15.01;63.94
30618;BME280;17384;51.214;9.202;2023-05-20T09:28:00;99223.19;;;15.32;62.98
30618;BME280;17384;51.214;9.202;2023-05-20T09:30:25;99208.94;;;15.30;62.49
30618;BME280;17384;51.214;9.202;2023-05-20T09:32:54;99216.94;;;14.90;63.28
30618;BME280;17384;51.214;9.202;2023-05-20T09:35:24;99203.31;;;15.13;63.44
30618;BME280;17384;51.214;9.202;2023-05-20T09:37:57;99221.03;;;14.81;64.07
30618;BME280;17384;51.214;9.202;2023-05-20T09:40:28;99204.97;;;15.14;62.88
30618;BME280;17384;51.214;9.202;2023-05-20T09:43:03;99209.88;;;15.36;62.27
30618;BME280;17384;51.214;9.202;2023-05-20T09:45:29;99201.19;;;15.39;62.53
30618;BME280;17384;51.214;9.202;2023-05-20T09:47:55;99213.34;;;15.43;62.41
30618;BME280;17384;51.214;9.202;2023-05-20T09:50:23;99204.88;;;15.21;63.70
30618;BME280;17384;51.214;9.202;2023-05-20T09:52:50;99217.13;;;15.42;62.78
30618;BME280;17384;51.214;9.202;2023-05-20T09:55:17;99210.88;;;15.65;61.85
30618;BME280;17384;51.214;9.202;2023-05-20T09:57:44;99215.88;;;15.68;62.92
30618;BME280;17384;51.214;9.202;2023-05-20T10:00:10;99212.03;;;15.92;61.26
30618;BME280;17384;51.214;9.202;2023-05-20T10:02:43;99217.50;;;16.04;60.25
30618;BME280;17384;51.214;9.202;2023-05-20T10:05:21;99219.75;;;16.07;60.38
30618;BME280;17384;51.214;9.202;2023-05-20T10:08:04;99213.22;;;15.96;61.10
30618;BME280;17384;51.214;9.202;2023-05-20T10:22:24;99211.00;;;15.58;60.74
30618;BME280;17384;51.214;9.202;2023-05-20T10:24:57;99189.56;;;15.55;60.63
30618;BME280;17384;51.214;9.202;2023-05-20T10:27:23;99203.22;;;15.43;61.91
30618;BME280;17384;51.214;9.202;2023-05-20T10:29:55;99200.06;;;15.58;60.98
30618;BME280;17384;51.214;9.202;2023-05-20T10:32:27;99191.88;;;15.58;60.99
30618;BME280;17384;51.214;9.202;2023-05-20T10:34:58;99196.47;;;15.69;60.86
30618;BME280;17384;51.214;9.202;2023-05-20T10:37:31;99188.59;;;16.08;59.81
30618;BME280;17384;51.214;9.202;2023-05-20T10:40:08;99199.09;;;15.64;61.02
30618;BME280;17384;51.214;9.202;2023-05-20T10:42:35;99188.16;;;15.64;60.46
30618;BME280;17384;51.214;9.202;2023-05-20T10:45:02;99191.13;;;15.86;60.76
30618;BME280;17384;51.214;9.202;2023-05-20T10:47:28;99186.25;;;15.30;61.54
30618;BME280;17384;51.214;9.202;2023-05-20T10:49:56;99180.66;;;15.24;61.75
30618;BME280;17384;51.214;9.202;2023-05-20T10:52:23;99168.41;;;15.27;61.27
30618;BME280;17384;51.214;9.202;2023-05-20T10:57:19;99161.75;;;15.81;60.38
30618;BME280;17384;51.214;9.202;2023-05-20T10:59:47;99150.53;;;16.35;60.15
30618;BME280;17384;51.214;9.202;2023-05-20T11:02:18;99164.22;;;16.35;58.93
30618;BME280;17384;51.214;9.202;2023-05-20T11:04:45;99161.31;;;16.70;58.62
30618;BME280;17384;51.214;9.202;2023-05-20T11:07:11;99164.78;;;17.10;58.79
30618;BME280;17384;51.214;9.202;2023-05-20T11:09:37;99157.31;;;17.22;57.78
30618;BME280;17384;51.214;9.202;2023-05-20T11:12:02;99152.91;;;16.88;57.66
30618;BME280;17384;51.214;9.202;2023-05-20T11:14:28;99162.34;;;16.52;58.12
30618;BME280;17384;51.214;9.202;2023-05-20T11:16:58;99156.13;;;16.28;58.96
30618;BME280;17384;51.214;9.202;2023-05-20T11:19:27;99154.38;;;16.22;59.78
30618;BME280;17384;51.214;9.202;2023-05-20T11:21:52;99148.38;;;16.37;58.72
30618;BME280;17384;51.214;9.202;2023-05-20T11:24:25;99150.44;;;16.18;60.02
30618;BME280;17384;51.214;9.202;2023-05-20T11:26:52;99158.00;;;15.99;60.26
30618;BME280;17384;51.214;9.202;2023-05-20T11:29:19;99150.16;;;15.91;60.52
30618;BME280;17384;51.214;9.202;2023-05-20T11:31:47;99159.31;;;15.97;59.95
30618;BME280;17384;51.214;9.202;2023-05-20T11:34:13;99137.72;;;15.37;61.65
30618;BME280;17384;51.214;9.202;2023-05-20T11:36:42;99139.53;;;15.31;62.60
30618;BME280;17384;51.214;9.202;2023-05-20T11:39:10;99139.88;;;15.46;62.29
30618;BME280;17384;51.214;9.202;2023-05-20T11:41:36;99128.09;;;15.46;61.70
30618;BME280;17384;51.214;9.202;2023-05-20T11:44:03;99137.38;;;15.68;62.19
30618;BME280;17384;51.214;9.202;2023-05-20T11:46:29;99129.94;;;15.92;61.61
30618;BME280;17384;51.214;9.202;2023-05-20T11:48:55;99125.91;;;15.95;60.94
30618;BME280;17384;51.214;9.202;2023-05-20T11:51:28;99127.06;;;15.99;61.44
30618;BME280;17384;51.214;9.202;2023-05-20T11:54:04;99124.41;;;15.75;60.25
30618;BME280;17384;51.214;9.202;2023-05-20T11:56:30;99125.31;;;15.93;60.50
30618;BME280;17384;51.214;9.202;2023-05-20T11:58:59;99130.50;;;16.06;60.32
30618;BME280;17384;51.214;9.202;2023-05-20T12:01:25;99136.59;;;15.96;60.42
30618;BME280;17384;51.214;9.202;2023-05-20T12:03:52;99126.19;;;15.81;60.43
30618;BME280;17384;51.214;9.202;2023-05-20T12:06:18;99119.41;;;15.72;60.69
30618;BME280;17384;51.214;9.202;2023-05-20T12:08:43;99123.41;;;15.93;61.16
30618;BME280;17384;51.214;9.202;2023-05-20T12:11:10;99124.44;;;16.04;61.00
30618;BME280;17384;51.214;9.202;2023-05-20T12:13:36;99123.72;;;16.37;59.67
30618;BME280;17384;51.214;9.202;2023-05-20T12:16:02;99119.75;;;16.44;60.04
30618;BME280;17384;51.214;9.202;2023-05-20T12:18:29;99116.16;;;16.27;58.95
30618;BME280;17384;51.214;9.202;2023-05-20T12:20:55;99099.44;;;16.12;60.05
30618;BME280;17384;51.214;9.202;2023-05-20T12:23:20;99098.28;;;15.96;60.36
30618;BME280;17384;51.214;9.202;2023-05-20T12:25:46;99106.50;;;15.96;60.44
30618;BME280;17384;51.214;9.202;2023-05-20T12:28:14;99110.28;;;16.07;60.35
30618;BME280;17384;51.214;9.202;2023-05-20T12:30:40;99103.25;;;16.11;59.96
30618;BME280;17384;51.214;9.202;2023-05-20T12:33:05;99097.47;;;15.96;60.37
30618;BME280;17384;51.214;9.202;2023-05-20T12:35:39;99095.19;;;16.04;60.29
30618;BME280;17384;51.214;9.202;2023-05-20T12:38:05;99096.19;;;16.15;59.62
30618;BME280;17384;51.214;9.202;2023-05-20T12:40:31;99109.00;;;15.98;60.86
30618;BME280;17384;51.214;9.202;2023-05-20T12:42:57;99093.38;;;16.10;59.66
30618;BME280;17384;51.214;9.202;2023-05-20T12:45:23;99085.16;;;16.38;59.38
30618;BME280;17384;51.214;9.202;2023-05-20T12:47:48;99093.13;;;16.56;59.36
30618;BME280;17384;51.214;9.202;2023-05-20T12:50:14;99103.00;;;16.41;59.23
30618;BME280;17384;51.214;9.202;2023-05-20T12:52:39;99086.06;;;16.15;59.97
30618;BME280;17384;51.214;9.202;2023-05-20T12:55:06;99096.53;;;16.18;60.45
30618;BME280;17384;51.214;9.202;2023-05-20T12:57:47;99110.78;;;16.32;60.03
30618;BME280;17384;51.214;9.202;2023-05-20T13:00:12;99102.34;;;16.22;60.08
30618;BME280;17384;51.214;9.202;2023-05-20T13:02:39;99099.81;;;16.32;59.99
30618;BME280;17384;51.214;9.202;2023-05-20T13:05:06;99092.44;;;16.49;59.53
30618;BME280;17384;51.214;9.202;2023-05-20T13:07:31;99100.66;;;16.78;58.94
30618;BME280;17384;51.214;9.202;2023-05-20T13:10:00;99082.69;;;16.70;59.13